createdAt,value
2023-07-31T00:02:23.356Z,87.10
2023-07-31T00:04:51.127Z,87.30
2023-07-31T00:07:18.375Z,87.40
2023-07-31T00:09:47.383Z,87.50
2023-07-31T00:12:14.761Z,87.40
2023-07-31T00:14:41.998Z,87.20
2023-07-31T00:17:11.205Z,87.10
2023-07-31T00:19:38.397Z,86.80
2023-07-31T00:22:07.128Z,86.90
2023-07-31T00:24:34.465Z,87.10
2023-07-31T00:27:03.531Z,87.10
2023-07-31T00:29:30.664Z,86.80
2023-07-31T00:31:57.783Z,86.60
2023-07-31T00:34:24.913Z,86.40
2023-07-31T00:36:52.004Z,86.40
2023-07-31T00:39:19.328Z,86.50
2023-07-31T00:41:47.076Z,86.60
2023-07-31T00:44:14.392Z,86.60
2023-07-31T00:46:41.776Z,86.90
2023-07-31T00:49:08.875Z,87.10
2023-07-31T00:51:35.986Z,87.50
2023-07-31T00:54:03.555Z,88.00
2023-07-31T00:56:31.726Z,88.30
2023-07-31T00:58:58.887Z,88.30
2023-07-31T01:01:26.049Z,88.00
2023-07-31T01:03:55.082Z,87.90
2023-07-31T01:06:28.212Z,87.80
2023-07-31T01:08:56.290Z,88.10
2023-07-31T01:11:29.160Z,88.30
2023-07-31T01:13:57.321Z,87.90
2023-07-31T01:16:24.512Z,87.70
2023-07-31T01:18:52.154Z,87.80
2023-07-31T01:21:43.630Z,88.10
2023-07-31T01:24:23.220Z,88.10
2023-07-31T01:27:06.188Z,87.80
2023-07-31T01:29:44.754Z,87.70
2023-07-31T01:32:11.920Z,87.40
2023-07-31T01:34:39.156Z,87.30
2023-07-31T01:37:06.674Z,87.30
2023-07-31T01:39:34.195Z,87.30
2023-07-31T01:42:02.172Z,87.40
2023-07-31T01:45:03.390Z,87.60
2023-07-31T01:47:30.682Z,87.60
2023-07-31T01:49:57.900Z,87.50
2023-07-31T01:52:25.005Z,87.40
2023-07-31T01:54:52.179Z,87.30
2023-07-31T01:57:19.622Z,87.20
2023-07-31T01:59:46.712Z,87.00
2023-07-31T02:02:14.543Z,87.00
2023-07-31T02:04:42.115Z,86.90
2023-07-31T02:07:09.262Z,87.00
2023-07-31T02:09:36.394Z,87.10
2023-07-31T02:12:03.625Z,87.30
2023-07-31T02:14:30.891Z,87.10
2023-07-31T02:16:58.047Z,87.00
2023-07-31T02:19:25.227Z,87.00
2023-07-31T02:21:52.298Z,87.10
2023-07-31T02:24:19.404Z,87.20
2023-07-31T02:26:47.112Z,87.10
2023-07-31T02:29:14.203Z,87.10
2023-07-31T02:31:42.608Z,87.00
2023-07-31T02:34:09.901Z,87.00
2023-07-31T02:36:37.576Z,87.00
2023-07-31T02:39:05.738Z,87.00
2023-07-31T02:41:33.052Z,87.30
2023-07-31T02:44:00.131Z,87.40
2023-07-31T02:46:27.357Z,87.30
2023-07-31T02:49:22.802Z,87.00
2023-07-31T02:51:50.000Z,86.90
2023-07-31T02:54:17.144Z,86.80
2023-07-31T02:56:44.434Z,86.90
2023-07-31T02:59:11.588Z,87.00
2023-07-31T03:01:39.569Z,87.20
2023-07-31T03:04:06.831Z,87.30
2023-07-31T03:06:33.946Z,87.50
2023-07-31T03:09:01.126Z,87.50
2023-07-31T03:11:28.221Z,87.50
2023-07-31T03:13:55.333Z,87.60
2023-07-31T03:16:22.758Z,87.90
2023-07-31T03:18:49.990Z,88.10
2023-07-31T03:21:17.170Z,88.10
2023-07-31T03:23:44.883Z,88.20
2023-07-31T03:26:13.177Z,88.10
2023-07-31T03:28:40.364Z,88.10
2023-07-31T03:31:10.241Z,88.80
2023-07-31T03:33:37.463Z,88.40
2023-07-31T03:36:06.985Z,88.60
2023-07-31T03:38:34.743Z,88.90
2023-07-31T03:41:02.001Z,88.90
2023-07-31T03:43:29.296Z,88.90
2023-07-31T03:45:56.580Z,89.10
2023-07-31T03:48:23.802Z,89.10
2023-07-31T03:50:51.354Z,89.20
2023-07-31T03:53:25.817Z,89.80
2023-07-31T03:55:53.033Z,89.20
2023-07-31T03:58:20.299Z,89.40
2023-07-31T04:00:48.571Z,89.30
2023-07-31T04:03:18.271Z,89.20
2023-07-31T04:05:45.897Z,89.40
2023-07-31T04:08:13.196Z,89.30
2023-07-31T04:10:40.705Z,89.50
2023-07-31T04:13:12.466Z,89.60
2023-07-31T04:15:39.666Z,89.60
2023-07-31T04:18:06.941Z,89.40
2023-07-31T04:20:34.239Z,89.10
2023-07-31T04:23:01.587Z,88.90
2023-07-31T04:25:28.973Z,89.20
2023-07-31T04:27:56.186Z,89.40
2023-07-31T04:30:25.216Z,89.20
2023-07-31T04:32:52.436Z,89.20
2023-07-31T04:35:19.831Z,89.60
2023-07-31T04:37:49.989Z,89.40
2023-07-31T04:40:19.693Z,89.30
2023-07-31T04:42:47.726Z,88.70
2023-07-31T04:45:16.798Z,88.70
2023-07-31T04:47:44.024Z,88.60
2023-07-31T04:50:14.031Z,88.30
2023-07-31T04:52:41.217Z,88.00
2023-07-31T04:55:08.941Z,87.60
2023-07-31T04:57:36.064Z,87.00
2023-07-31T05:00:04.931Z,86.70
2023-07-31T05:02:32.356Z,86.50
2023-07-31T05:04:59.554Z,86.10
2023-07-31T05:07:26.714Z,86.00
2023-07-31T05:09:54.856Z,86.10
2023-07-31T05:12:25.770Z,86.90
2023-07-31T05:14:53.075Z,86.20
2023-07-31T05:17:27.501Z,86.40
2023-07-31T05:19:54.987Z,86.60
2023-07-31T05:22:31.360Z,86.70
2023-07-31T05:38:52.422Z,87.30
2023-07-31T05:41:26.072Z,86.80
2023-07-31T05:43:54.408Z,86.80
2023-07-31T06:23:03.005Z,80.80
2023-07-31T06:25:33.511Z,80.50
2023-07-31T06:28:03.849Z,80.10
2023-07-31T06:30:36.165Z,80.10
2023-07-31T06:33:06.075Z,79.80
2023-07-31T06:35:34.042Z,79.70
2023-07-31T06:48:52.874Z,75.60
2023-07-31T06:51:20.574Z,74.00
2023-07-31T06:53:51.011Z,73.00
2023-07-31T06:56:20.424Z,71.40
2023-07-31T06:58:53.581Z,70.80
2023-07-31T07:04:04.690Z,70.50
2023-07-31T07:06:32.265Z,70.10
2023-07-31T07:08:59.809Z,70.40
2023-07-31T07:11:30.941Z,68.90
2023-07-31T07:24:05.550Z,66.60
2023-07-31T07:37:24.176Z,63.20
2023-07-31T07:39:51.623Z,62.00
2023-07-31T07:42:29.184Z,61.10
2023-07-31T07:45:02.518Z,61.20
2023-07-31T07:47:31.897Z,60.40
2023-07-31T07:52:38.629Z,61.00
2023-07-31T07:55:08.269Z,60.90
2023-07-31T07:57:36.041Z,61.00
2023-07-31T08:00:04.309Z,59.80
2023-07-31T08:06:22.767Z,57.60
2023-07-31T08:28:25.104Z,54.00
2023-07-31T08:30:55.174Z,52.60
2023-07-31T08:34:14.883Z,50.90
2023-07-31T08:48:15.980Z,52.30
2023-07-31T08:53:28.992Z,51.00
2023-07-31T08:55:59.616Z,51.60
2023-07-31T08:58:28.572Z,51.00
2023-07-31T09:00:59.043Z,51.00
2023-07-31T09:04:04.188Z,50.90
2023-07-31T09:09:21.764Z,49.30
2023-07-31T09:11:51.106Z,49.50
2023-07-31T09:20:38.026Z,50.60
2023-07-31T09:23:12.681Z,49.80
2023-07-31T09:36:59.753Z,50.10
2023-07-31T09:39:30.453Z,50.00
2023-07-31T09:41:57.845Z,49.80
2023-07-31T09:44:59.101Z,49.00
2023-07-31T09:48:48.405Z,47.90
2023-07-31T09:56:49.809Z,47.40
2023-07-31T09:59:24.015Z,44.90
2023-07-31T10:01:51.773Z,44.40
2023-07-31T10:04:42.044Z,44.60
2023-07-31T10:07:09.308Z,44.90
2023-07-31T10:09:36.593Z,44.90
2023-07-31T10:14:40.432Z,45.30
2023-07-31T10:17:07.496Z,43.80
2023-07-31T10:19:34.841Z,43.20
2023-07-31T10:22:02.174Z,42.70
2023-07-31T10:24:29.365Z,42.10
2023-07-31T10:26:56.459Z,42.80
2023-07-31T10:29:23.569Z,42.90
2023-07-31T10:31:50.590Z,42.60
2023-07-31T10:34:17.950Z,41.50
2023-07-31T10:36:44.959Z,40.40
2023-07-31T10:39:37.911Z,39.90
2023-07-31T10:42:14.427Z,39.80
2023-07-31T10:44:48.545Z,39.30
2023-07-31T10:47:19.169Z,39.60
2023-07-31T10:50:21.828Z,40.40
2023-07-31T10:52:55.964Z,40.90
2023-07-31T10:55:27.312Z,41.30
2023-07-31T10:57:55.422Z,39.70
2023-07-31T11:00:32.001Z,40.20
2023-07-31T11:03:03.295Z,40.00
2023-07-31T11:05:49.504Z,40.60
2023-07-31T11:08:23.771Z,39.70
2023-07-31T11:11:03.047Z,39.10
2023-07-31T11:13:43.843Z,38.80
2023-07-31T11:16:11.807Z,39.60
2023-07-31T11:18:41.171Z,35.80
2023-07-31T11:21:09.738Z,37.00
2023-07-31T11:23:38.470Z,36.60
2023-07-31T11:26:15.850Z,36.00
2023-07-31T11:29:12.140Z,36.20
2023-07-31T11:31:44.439Z,37.40
2023-07-31T11:34:11.810Z,37.60
2023-07-31T11:36:39.298Z,38.80
2023-07-31T11:39:14.048Z,38.70
2023-07-31T11:41:44.397Z,38.10
2023-07-31T11:44:26.168Z,38.90
2023-07-31T11:47:00.049Z,39.10
2023-07-31T11:49:27.653Z,37.50
2023-07-31T11:51:56.455Z,37.80
2023-07-31T11:54:23.611Z,37.60
2023-07-31T11:56:51.782Z,36.50
2023-07-31T11:59:19.461Z,37.00
2023-07-31T12:01:47.281Z,38.10
2023-07-31T12:04:14.603Z,39.00
2023-07-31T12:06:42.281Z,39.20
2023-07-31T12:09:09.662Z,39.30
2023-07-31T12:11:49.983Z,40.20
2023-07-31T12:14:31.371Z,39.70
2023-07-31T12:17:00.519Z,39.40
2023-07-31T12:19:31.079Z,38.70
2023-07-31T12:22:02.842Z,38.40
2023-07-31T12:24:30.024Z,37.30
2023-07-31T12:26:57.320Z,37.50
2023-07-31T12:29:24.603Z,37.00
2023-07-31T12:31:52.095Z,37.10
2023-07-31T12:34:20.376Z,37.50
2023-07-31T12:36:55.070Z,38.80
2023-07-31T12:39:25.090Z,39.10
2023-07-31T12:41:52.749Z,38.00
2023-07-31T12:44:19.998Z,37.10
2023-07-31T12:46:48.830Z,37.20
2023-07-31T12:49:16.160Z,37.10
2023-07-31T12:51:43.530Z,36.90
2023-07-31T12:54:11.770Z,37.30
2023-07-31T12:56:39.578Z,37.30
2023-07-31T12:59:07.349Z,37.60
2023-07-31T13:01:34.636Z,38.60
2023-07-31T13:04:02.006Z,38.00
2023-07-31T13:06:29.353Z,38.10
2023-07-31T13:08:57.455Z,38.60
2023-07-31T13:11:24.796Z,37.40
2023-07-31T13:13:52.051Z,37.90
2023-07-31T13:16:19.316Z,38.00
2023-07-31T13:18:46.869Z,38.10
2023-07-31T13:21:14.413Z,38.40
2023-07-31T13:23:42.891Z,39.30
2023-07-31T13:26:10.356Z,38.90
2023-07-31T13:28:39.603Z,38.50
2023-07-31T13:31:13.090Z,37.20
2023-07-31T13:33:43.167Z,36.70
2023-07-31T13:38:53.580Z,38.00
2023-07-31T13:41:20.747Z,37.40
2023-07-31T13:43:48.969Z,37.50
2023-07-31T13:46:16.203Z,37.90
2023-07-31T13:48:43.423Z,38.30
2023-07-31T13:51:11.671Z,38.30
2023-07-31T13:53:39.441Z,38.60
2023-07-31T13:56:07.278Z,38.10
2023-07-31T13:58:35.120Z,37.50
2023-07-31T14:01:05.068Z,37.40
2023-07-31T14:03:32.490Z,37.10
2023-07-31T14:05:59.838Z,37.00
2023-07-31T14:08:27.103Z,37.50
2023-07-31T14:10:54.231Z,37.60
2023-07-31T14:13:21.349Z,36.80
2023-07-31T14:15:51.782Z,36.00
2023-07-31T14:18:19.599Z,36.80
2023-07-31T14:20:46.958Z,36.70
2023-07-31T14:23:14.251Z,36.70
2023-07-31T14:25:41.368Z,37.70
2023-07-31T14:28:08.556Z,38.10
2023-07-31T14:30:35.750Z,38.50
2023-07-31T14:33:03.711Z,38.50
2023-07-31T14:35:30.930Z,38.30
2023-07-31T14:37:58.104Z,38.10
2023-07-31T14:40:28.095Z,37.10
2023-07-31T14:42:55.292Z,37.00
2023-07-31T14:45:22.574Z,37.20
2023-07-31T14:48:01.436Z,36.70
2023-07-31T14:50:28.638Z,37.30
2023-07-31T14:52:55.770Z,37.80
2023-07-31T14:55:23.009Z,38.50
2023-07-31T14:57:50.180Z,37.80
2023-07-31T15:00:17.434Z,37.60
2023-07-31T15:02:47.023Z,37.30
2023-07-31T15:05:14.312Z,38.00
2023-07-31T15:07:41.580Z,36.90
2023-07-31T15:10:13.146Z,37.90
2023-07-31T15:12:44.448Z,38.20
2023-07-31T15:15:12.832Z,38.40
2023-07-31T15:17:48.352Z,39.10
2023-07-31T15:20:15.648Z,39.30
2023-07-31T15:22:43.246Z,38.60
2023-07-31T15:25:10.509Z,38.00
2023-07-31T15:27:45.041Z,37.80
2023-07-31T15:30:13.235Z,38.20
2023-07-31T15:32:40.626Z,38.00
2023-07-31T15:35:08.780Z,38.30
2023-07-31T15:37:36.027Z,37.90
2023-07-31T15:40:03.304Z,37.80
2023-07-31T15:42:31.454Z,38.10
2023-07-31T15:45:07.824Z,38.60
2023-07-31T15:47:35.206Z,39.10
2023-07-31T15:50:02.412Z,39.70
2023-07-31T15:52:30.994Z,40.30
2023-07-31T15:54:58.308Z,40.10
2023-07-31T15:57:26.816Z,39.00
2023-07-31T16:00:05.870Z,39.50
2023-07-31T16:02:33.297Z,39.70
2023-07-31T16:05:00.888Z,39.30
2023-07-31T16:07:28.171Z,39.90
2023-07-31T16:09:56.262Z,40.20
2023-07-31T16:12:24.387Z,39.70
2023-07-31T16:14:51.651Z,39.70
2023-07-31T16:17:18.761Z,39.10
2023-07-31T16:19:46.059Z,39.30
2023-07-31T16:22:13.364Z,39.50
2023-07-31T16:24:40.513Z,40.00
2023-07-31T16:27:07.866Z,40.30
2023-07-31T16:29:35.115Z,40.40
2023-07-31T16:32:02.303Z,40.80
2023-07-31T16:34:29.629Z,40.40
2023-07-31T16:36:57.469Z,40.80
2023-07-31T16:39:26.331Z,41.10
2023-07-31T16:41:55.991Z,41.50
2023-07-31T16:44:23.323Z,41.40
2023-07-31T16:46:51.087Z,41.00
2023-07-31T16:49:20.450Z,40.90
2023-07-31T16:51:48.562Z,41.00
2023-07-31T16:54:15.678Z,40.40
2023-07-31T16:56:53.496Z,40.60
2023-07-31T16:59:26.215Z,41.60
2023-07-31T17:01:54.453Z,42.50
2023-07-31T17:04:24.199Z,44.00
2023-07-31T17:06:53.450Z,43.70
2023-07-31T17:09:21.252Z,43.90
2023-07-31T17:11:48.775Z,44.30
2023-07-31T17:14:16.759Z,44.00
2023-07-31T17:16:44.290Z,44.20
2023-07-31T17:19:11.399Z,44.60
2023-07-31T17:21:38.845Z,45.30
2023-07-31T17:24:07.441Z,45.90
2023-07-31T17:26:36.114Z,46.10
2023-07-31T17:29:03.321Z,46.40
2023-07-31T17:31:31.672Z,46.60
2023-07-31T17:33:59.115Z,46.80
2023-07-31T17:36:26.387Z,47.00
2023-07-31T17:38:54.109Z,47.70
2023-07-31T17:41:22.137Z,48.20
2023-07-31T17:43:49.217Z,48.20
2023-07-31T17:46:16.364Z,48.30
2023-07-31T17:48:44.750Z,48.60
2023-07-31T17:51:13.227Z,49.40
2023-07-31T17:53:40.420Z,49.90
2023-07-31T17:56:10.003Z,50.40
2023-07-31T17:58:37.108Z,51.00
2023-07-31T18:01:07.465Z,51.30
2023-07-31T18:03:34.822Z,51.70
2023-07-31T18:06:02.320Z,52.10
2023-07-31T18:08:29.510Z,52.60
2023-07-31T18:10:58.758Z,53.20
2023-07-31T18:13:25.969Z,53.50
2023-07-31T18:15:53.420Z,53.80
2023-07-31T18:18:21.604Z,54.20
2023-07-31T18:20:49.082Z,54.50
2023-07-31T18:23:17.795Z,54.80
2023-07-31T18:25:45.060Z,55.00
2023-07-31T18:28:12.412Z,55.10
2023-07-31T18:30:39.717Z,55.40
2023-07-31T18:33:07.410Z,55.30
2023-07-31T18:35:39.997Z,55.50
2023-07-31T18:38:08.382Z,55.70
2023-07-31T18:40:36.041Z,56.00
2023-07-31T18:43:04.670Z,56.30
2023-07-31T18:45:33.820Z,56.50
2023-07-31T18:48:01.273Z,56.70
2023-07-31T18:50:28.731Z,57.00
2023-07-31T18:52:56.153Z,57.30
2023-07-31T18:55:24.136Z,57.50
2023-07-31T18:57:51.867Z,57.80
2023-07-31T19:00:19.174Z,58.40
2023-07-31T19:02:47.267Z,58.70
2023-07-31T19:05:15.717Z,58.80
2023-07-31T19:07:44.669Z,58.90
2023-07-31T19:10:16.963Z,59.00
2023-07-31T19:12:45.099Z,59.20
2023-07-31T19:15:12.606Z,59.60
2023-07-31T19:17:41.021Z,60.00
2023-07-31T19:20:11.619Z,60.20
2023-07-31T19:22:42.109Z,60.60
2023-07-31T19:25:09.877Z,61.00
2023-07-31T19:27:37.241Z,61.40
2023-07-31T19:30:08.750Z,61.70
2023-07-31T19:32:36.178Z,61.90
2023-07-31T19:35:04.759Z,62.30
2023-07-31T19:37:32.301Z,62.00
2023-07-31T19:40:00.920Z,61.90
2023-07-31T19:42:28.969Z,61.80
2023-07-31T19:44:56.515Z,62.00
2023-07-31T19:47:24.216Z,62.00
2023-07-31T19:49:51.636Z,62.10
2023-07-31T19:52:18.927Z,62.00
2023-07-31T19:54:56.490Z,62.00
2023-07-31T19:57:23.725Z,62.30
2023-07-31T19:59:51.153Z,62.90
2023-07-31T20:02:18.801Z,63.20
2023-07-31T20:04:46.748Z,63.40
2023-07-31T20:07:14.193Z,63.40
2023-07-31T20:09:41.530Z,63.40
2023-07-31T20:12:09.499Z,63.50
2023-07-31T20:14:36.666Z,63.70
2023-07-31T20:17:04.212Z,63.80
2023-07-31T20:19:32.491Z,63.70
2023-07-31T20:21:59.823Z,64.00
2023-07-31T20:24:27.122Z,64.10
2023-07-31T20:26:54.344Z,64.10
2023-07-31T20:29:21.619Z,64.30
2023-07-31T20:31:48.897Z,64.60
2023-07-31T20:34:16.104Z,65.00
2023-07-31T20:36:43.507Z,65.10
2023-07-31T20:39:11.259Z,65.10
2023-07-31T20:41:38.415Z,65.30
2023-07-31T20:44:05.992Z,65.60
2023-07-31T20:46:37.963Z,65.60
2023-07-31T20:49:05.591Z,65.50
2023-07-31T20:51:33.764Z,65.80
2023-07-31T20:54:02.741Z,65.90
2023-07-31T20:56:35.110Z,66.70
2023-07-31T20:59:02.472Z,67.10
2023-07-31T21:01:30.981Z,67.00
2023-07-31T21:03:58.384Z,67.10
2023-07-31T21:06:26.248Z,67.80
2023-07-31T21:09:04.364Z,67.10
2023-07-31T21:11:41.068Z,67.40
2023-07-31T21:14:10.340Z,67.60
2023-07-31T21:16:39.154Z,67.60
2023-07-31T21:19:06.709Z,67.60
2023-07-31T21:21:34.350Z,67.80
2023-07-31T21:24:01.632Z,67.60
2023-07-31T21:26:28.849Z,67.80
2023-07-31T21:28:56.046Z,68.40
2023-07-31T21:31:23.224Z,68.50
2023-07-31T21:33:50.502Z,68.70
2023-07-31T21:36:17.577Z,68.70
2023-07-31T21:38:46.780Z,68.50
2023-07-31T21:41:22.065Z,68.50
2023-07-31T21:43:49.245Z,68.50
2023-07-31T21:46:16.408Z,68.50
2023-07-31T21:48:43.701Z,68.60
2023-07-31T21:51:12.748Z,68.70
2023-07-31T21:53:39.853Z,68.80
2023-07-31T21:56:06.993Z,68.80
2023-07-31T21:58:34.155Z,68.80
2023-07-31T22:01:01.691Z,68.80
2023-07-31T22:03:28.857Z,68.80
2023-07-31T22:05:55.958Z,68.80
2023-07-31T22:08:23.096Z,69.20
2023-07-31T22:10:52.614Z,69.70
2023-07-31T22:13:19.822Z,69.60
2023-07-31T22:15:49.083Z,69.60
2023-07-31T22:18:16.361Z,69.60
2023-07-31T22:20:43.699Z,69.70
2023-07-31T22:23:10.748Z,69.80
2023-07-31T22:25:37.812Z,70.20
2023-07-31T22:28:20.166Z,70.20
2023-07-31T22:30:48.553Z,70.30
2023-07-31T22:33:15.779Z,70.20
2023-07-31T22:35:45.410Z,70.30
2023-07-31T22:38:15.015Z,70.30
2023-07-31T22:40:42.170Z,70.50
2023-07-31T22:43:10.663Z,70.50
2023-07-31T22:45:39.350Z,70.50
2023-07-31T22:48:06.480Z,70.50
2023-07-31T22:50:33.628Z,70.50
2023-07-31T22:53:02.893Z,70.80
2023-07-31T22:55:31.420Z,71.10
2023-07-31T22:58:01.955Z,71.20
2023-07-31T23:00:29.534Z,71.40
2023-07-31T23:02:56.917Z,71.50
2023-07-31T23:05:24.666Z,71.50
2023-07-31T23:07:53.099Z,71.80
2023-07-31T23:10:20.975Z,72.10
2023-07-31T23:12:48.080Z,72.40
2023-07-31T23:15:15.267Z,72.20
2023-07-31T23:17:42.799Z,72.70
2023-07-31T23:20:10.625Z,72.80
2023-07-31T23:22:39.254Z,72.90
2023-07-31T23:25:11.297Z,73.10
2023-07-31T23:27:38.528Z,73.30
2023-07-31T23:30:07.042Z,73.20
2023-07-31T23:32:35.085Z,73.20
2023-07-31T23:35:03.564Z,73.30
2023-07-31T23:37:30.862Z,73.20
2023-07-31T23:40:08.494Z,73.20
2023-07-31T23:42:35.605Z,73.10
2023-07-31T23:45:12.028Z,73.10
2023-07-31T23:47:39.350Z,73.20
2023-07-31T23:50:08.555Z,73.10
2023-07-31T23:52:37.479Z,73.10
2023-07-31T23:55:05.007Z,73.60
2023-07-31T23:57:32.126Z,72.90
2023-07-31T23:59:59.254Z,72.80
